EGLCEGSS

Guest
Details From EGLC - London City
To EGSS - London Stansted
Flight Number -
Tags Routegen Generated
Created
Modified
Stats Distance 28 nm / 52 km
Max Altitude 100 ft / 30 m
Waypoints 5
Social Downloads 4
Likes 0
Share VATSIM

Download

Looking for another format? Having issues loading an existing format? Contact us
Advertisement - Login to hide

Notes

Departing runway 9 EGLC. Arriving runway 4 EGSS.

Route

EGLC +51.50_+000.18 +51.66_+000.16 +51.82_+000.14 EGSS

ID Type Via Altitude Latitude Longitude Leg Dist Tot Dist Heading (true) Name
O EGLC APT - 0 ft / 0 m 51.50489˚ 0.06592˚ - 0 nm - -
+51.50_+000.18 LATLON - 100 ft / 30 m 51.50113˚ 0.18202˚ 4 nm 4 nm 93° / 93° -
+51.66_+000.16 LATLON - 100 ft / 30 m 51.66155˚ 0.16119˚ 9 nm 14 nm 355° / 355° -
+51.82_+000.14 LATLON - 100 ft / 30 m 51.82197˚ 0.14036˚ 9 nm 23 nm 355° / 355° -
O EGSS APT - 0 ft / 0 m 51.87508˚ 0.21993˚ 4 nm 28 nm 43° / 43° -

Altitude Profile

Advertisement - Login to hide

EGLC

Details ICAO EGLC (LCY)
Name London City
Region United Kingdom
Timezone Europe/London (UTC+1.0)
Stats Elevation 19 ft / 6 m (AMSL)
Location 51.505231° 0.055175°
Runways 1
Magnetic Variation 0.319° W

METAR

EGLC 261420Z AUTO 06017KT 9999 FEW034 24/16 Q1018

Decode

TAF

Not found

Departure Runways

ID Width Length Bearing (true) Bearing (mag) Surface Threshold Offset Overrun Length
09 98 ft / 30 m 4,931 ft / 1,503 m 92.89° 93.21° Concrete 322 ft / 98 m 164 ft / 50 m
27 98 ft / 30 m 4,931 ft / 1,503 m 272.91° 273.23° Concrete 243 ft / 74 m 279 ft / 85 m

EGSS

Details ICAO EGSS (STN)
Name London Stansted
Region United Kingdom
Timezone Europe/London (UTC+1.0)
Stats Elevation 348 ft / 106 m (AMSL)
Location 51.885097° 0.234962°
Runways 1
Magnetic Variation 0.297° W

METAR

EGSS 261420Z AUTO 06015KT 9999 FEW025 24/17 Q1019

Decode

TAF

TAF AMD EGSS 261441Z 2614/2718 05010KT 9999 FEW025 TEMPO 2614/2618 06015G25KT PROB40 TEMPO 2622/2712 3000 +TSRA BKN012 BKN040CB TEMPO 2712/2718 5000 +SHRA TSRA BKN014 BKN040CB PROB40 TEMPO 2712/2718 VRB15G25KT 2000 +TSGR

Decode

Destination Runways

ID Width Length Bearing (true) Bearing (mag) Surface Threshold Offset Overrun Length
04 151 ft / 46 m 10,011 ft / 3,052 m 42.79° 43.09° Asphalt 994 ft / 303 m 0 ft / 0 m
22 151 ft / 46 m 10,011 ft / 3,052 m 222.81° 223.11° Asphalt 0 ft / 0 m 0 ft / 0 m

Approach Navaids

Runway Type Ident Frequency Range Bearing (true) Bearing (mag) Slope Elevation
04 Localiser ISED 110.50 MHz 18 nm / 33 km 42.80° 43.10° - 348 ft / 106 m (AMSL)
04 Glidescope ISED 110.50 MHz 10 nm / 19 km 42.80° 43.10° 3.00° 348 ft / 106 m (AMSL)
04 DME ISED 110.50 MHz 18 nm / 33 km - - - 348 ft / 106 m (AMSL)
22 Localiser ISX 110.50 MHz 18 nm / 33 km 222.80° 223.10° - 348 ft / 106 m (AMSL)
22 Glidescope ISX 110.50 MHz 10 nm / 19 km 222.80° 223.10° 3.00° 348 ft / 106 m (AMSL)
22 DME ISX 110.50 MHz 18 nm / 33 km - - - 348 ft / 106 m (AMSL)

Popular Alternatives